Map

Track Data

SID SEASON NUMBER BASIN SUBBASIN NAME ISO_TIME NATURE LAT LON WMO_WIND WMO_PRES WMO_AGENCY TRACK_TYPE DIST2LAND LANDFALL IFLAG USA_AGENCY USA_ATCF_ID USA_LAT USA_LON USA_RECORD USA_STATUS USA_WIND USA_PRES USA_SSHS USA_R34_NE USA_R34_SE USA_R34_SW USA_R34_NW USA_R50_NE USA_R50_SE USA_R50_SW USA_R50_NW USA_R64_NE USA_R64_SE USA_R64_SW USA_R64_NW USA_POCI USA_ROCI USA_RMW USA_EYE TOKYO_LAT TOKYO_LON TOKYO_GRADE TOKYO_WIND TOKYO_PRES TOKYO_R50_DIR TOKYO_R50_LONG TOKYO_R50_SHORT TOKYO_R30_DIR TOKYO_R30_LONG TOKYO_R30_SHORT TOKYO_LAND CMA_LAT CMA_LON CMA_CAT CMA_WIND CMA_PRES HKO_LAT HKO_LON HKO_CAT HKO_WIND HKO_PRES NEWDELHI_LAT NEWDELHI_LON NEWDELHI_GRADE NEWDELHI_WIND NEWDELHI_PRES NEWDELHI_CI NEWDELHI_DP NEWDELHI_POCI REUNION_LAT REUNION_LON REUNION_TYPE REUNION_WIND REUNION_PRES REUNION_TNUM REUNION_CI REUNION_RMW REUNION_R34_NE REUNION_R34_SE REUNION_R34_SW REUNION_R34_NW REUNION_R50_NE REUNION_R50_SE REUNION_R50_SW REUNION_R50_NW REUNION_R64_NE REUNION_R64_SE REUNION_R64_SW REUNION_R64_NW BOM_LAT BOM_LON BOM_TYPE BOM_WIND BOM_PRES BOM_TNUM BOM_CI BOM_RMW BOM_R34_NE BOM_R34_SE BOM_R34_SW BOM_R34_NW BOM_R50_NE BOM_R50_SE BOM_R50_SW BOM_R50_NW BOM_R64_NE BOM_R64_SE BOM_R64_SW BOM_R64_NW BOM_ROCI BOM_POCI BOM_EYE BOM_POS_METHOD BOM_PRES_METHOD NADI_LAT NADI_LON NADI_CAT NADI_WIND NADI_PRES WELLINGTON_LAT WELLINGTON_LON WELLINGTON_WIND WELLINGTON_PRES DS824_LAT DS824_LON DS824_STAGE DS824_WIND DS824_PRES TD9636_LAT TD9636_LON TD9636_STAGE TD9636_WIND TD9636_PRES TD9635_LAT TD9635_LON TD9635_WIND TD9635_PRES TD9635_ROCI NEUMANN_LAT NEUMANN_LON NEUMANN_CLASS NEUMANN_WIND NEUMANN_PRES MLC_LAT MLC_LON MLC_CLASS MLC_WIND MLC_PRES USA_GUST BOM_GUST BOM_GUST_PER REUNION_GUST REUNION_GUST_PER USA_SEAHGT USA_SEARAD_NE USA_SEARAD_SE USA_SEARAD_SW USA_SEARAD_NW STORM_SPEED STORM_DIR
1942274N24289 1942 60 NA NA NOT_NAMED 1942-09-30 12:00:00 TS 24.0000 -71.0000 30 hurdat_atl main 374 374 O_____________ hurdat_atl AL081942 24.0000 -71.0000 TD 30 -1 5 20
1942274N24289 1942 60 NA NA NOT_NAMED 1942-09-30 15:00:00 TS 24.2500 -70.9001 main 407 407 P_____________ AL081942 24.2500 -70.9001 TD 30 -1 5 20
1942274N24289 1942 60 NA NA NOT_NAMED 1942-09-30 18:00:00 TS 24.5000 -70.8000 30 hurdat_atl main 432 432 O_____________ hurdat_atl AL081942 24.5000 -70.8000 TD 30 -1 5 20
1942274N24289 1942 60 NA NA NOT_NAMED 1942-09-30 21:00:00 TS 24.7500 -70.7000 main 456 456 P_____________ AL081942 24.7500 -70.7000 TD 32 -1 5 20
1942274N24289 1942 60 NA NA NOT_NAMED 1942-10-01 00:00:00 TS 25.0000 -70.6000 35 hurdat_atl main 490 490 O_____________ hurdat_atl AL081942 25.0000 -70.6000 TS 35 0 5 19
1942274N24289 1942 60 NA NA NOT_NAMED 1942-10-01 03:00:00 TS 25.2500 -70.5149 main 514 514 P_____________ AL081942 25.2500 -70.5149 TS 37 0 5 20
1942274N24289 1942 60 NA NA NOT_NAMED 1942-10-01 06:00:00 TS 25.5000 -70.4000 40 hurdat_atl main 548 548 O_____________ hurdat_atl AL081942 25.5000 -70.4000 TS 40 0 5 26
1942274N24289 1942 60 NA NA NOT_NAMED 1942-10-01 09:00:00 TS 25.7423 -70.2522 main 573 573 P_____________ AL081942 25.7423 -70.2522 TS 42 0 6 36
1942274N24289 1942 60 NA NA NOT_NAMED 1942-10-01 12:00:00 TS 26.0000 -70.0000 45 hurdat_atl main 617 617 O_____________ hurdat_atl AL081942 26.0000 -70.0000 TS 45 0 8 47
1942274N24289 1942 60 NA NA NOT_NAMED 1942-10-01 15:00:00 TS 26.2925 -69.6025 main 666 666 P_____________ AL081942 26.2925 -69.6025 TS 45 0 10 53
1942274N24289 1942 60 NA NA NOT_NAMED 1942-10-01 18:00:00 TS 26.6000 -69.1000 45 hurdat_atl main 721 721 O_____________ hurdat_atl AL081942 26.6000 -69.1000 TS 45 0 11 58
1942274N24289 1942 60 NA NA NOT_NAMED 1942-10-01 21:00:00 TS 26.8774 -68.5719 main 777 777 P_____________ AL081942 26.8774 -68.5719 TS 45 0 12 59
1942274N24289 1942 60 NA NA NOT_NAMED 1942-10-02 00:00:00 TS 27.2000 -68.0000 45 hurdat_atl main 840 840 O_____________ hurdat_atl AL081942 27.2000 -68.0000 TS 45 0 13 54
1942274N24289 1942 60 NA NA NOT_NAMED 1942-10-02 03:00:00 TS 27.6198 -67.4073 main 912 912 P_____________ AL081942 27.6198 -67.4073 TS 47 0 14 50
1942274N24289 1942 60 NA NA NOT_NAMED 1942-10-02 06:00:00 TS 28.1000 -66.8000 50 hurdat_atl main 992 992 O_____________ hurdat_atl AL081942 28.1000 -66.8000 TS 50 0 14 48
1942274N24289 1942 60 NA NA NOT_NAMED 1942-10-02 09:00:00 TS 28.5847 -66.1994 main 1073 1073 P_____________ AL081942 28.5847 -66.1994 TS 52 0 15 46
1942274N24289 1942 60 NA NA NOT_NAMED 1942-10-02 12:00:00 TS 29.1000 -65.6000 55 hurdat_atl main 1150 1150 O_____________ hurdat_atl AL081942 29.1000 -65.6000 TS 55 0 15 45
1942274N24289 1942 60 NA NA NOT_NAMED 1942-10-02 15:00:00 TS 29.6423 -64.9921 main 1198 1191 P_____________ AL081942 29.6423 -64.9921 TS 57 0 15 43
1942274N24289 1942 60 NA NA NOT_NAMED 1942-10-02 18:00:00 TS 30.2000 -64.4000 60 hurdat_atl main 1206 1206 O_____________ hurdat_atl AL081942 30.2000 -64.4000 TS 60 0 15 42
1942274N24289 1942 60 NA NA NOT_NAMED 1942-10-02 21:00:00 TS 30.7422 -63.8416 main 1224 1218 P_____________ AL081942 30.7422 -63.8416 TS 60 0 15 41
1942274N24289 1942 60 NA NA NOT_NAMED 1942-10-03 00:00:00 TS 31.3000 -63.3000 60 hurdat_atl main 1233 1233 O_____________ hurdat_atl AL081942 31.3000 -63.3000 TS 60 0 15 39
1942274N24289 1942 60 NA NA NOT_NAMED 1942-10-03 03:00:00 TS 31.8847 -62.7566 main 1247 1234 P_____________ AL081942 31.8847 -62.7566 TS 60 0 15 38
1942274N24289 1942 60 NA NA NOT_NAMED 1942-10-03 06:00:00 TS 32.5000 -62.2000 60 hurdat_atl main 1234 1199 O_____________ hurdat_atl AL081942 32.5000 -62.2000 TS 60 0 15 38
1942274N24289 1942 60 NA NA NOT_NAMED 1942-10-03 09:00:00 TS 33.1044 -61.6352 main 1201 1141 P_____________ AL081942 33.1044 -61.6352 TS 60 0 16 38
1942274N24289 1942 60 NA NA NOT_NAMED 1942-10-03 12:00:00 TS 33.8000 -61.0000 60 hurdat_atl main 1141 1079 O_____________ hurdat_atl AL081942 33.8000 -61.0000 TS 60 0 19 37
1942274N24289 1942 60 NA NA NOT_NAMED 1942-10-03 15:00:00 TS 34.6473 -60.2440 main 1083 1018 P_____________ AL081942 34.6473 -60.2440 TS 57 0 22 36
1942274N24289 1942 60 NA NA NOT_NAMED 1942-10-03 18:00:00 TS 35.6000 -59.4000 55 hurdat_atl main 1013 963 O_____________ hurdat_atl AL081942 35.6000 -59.4000 TS 55 0 24 36
1942274N24289 1942 60 NA NA NOT_NAMED 1942-10-03 21:00:00 TS 36.5769 -58.5278 main 959 901 P_____________ AL081942 36.5769 -58.5278 TS 52 0 25 36
1942274N24289 1942 60 NA NA NOT_NAMED 1942-10-04 00:00:00 TS 37.6000 -57.6000 50 hurdat_atl main 893 822 O_____________ hurdat_atl AL081942 37.6000 -57.6000 TS 50 0 26 37
1942274N24289 1942 60 NA NA NOT_NAMED 1942-10-04 03:00:00 TS 38.6278 -56.5838 main 822 763 P_____________ AL081942 38.6278 -56.5838 TS 47 0 26 37
1942274N24289 1942 60 NA NA NOT_NAMED 1942-10-04 06:00:00 TS 39.7000 -55.6000 45 hurdat_atl main 758 651 O_____________ hurdat_atl AL081942 39.7000 -55.6000 TS 45 0 26 33
1942274N24289 1942 60 NA NA NOT_NAMED 1942-10-04 09:00:00 TS 40.8495 -54.7242 main 650 523 P_____________ AL081942 40.8495 -54.7242 TS 42 0 26 28
1942274N24289 1942 60 NA NA NOT_NAMED 1942-10-04 12:00:00 ET 42.0000 -54.0000 40 hurdat_atl main 512 388 O_____________ hurdat_atl AL081942 42.0000 -54.0000 EX 40 -4 25 23
1942274N24289 1942 60 NA NA NOT_NAMED 1942-10-04 15:00:00 ET 43.1391 -53.4380 main 389 278 P_____________ AL081942 43.1391 -53.4380 EX 42 -4 22 19
1942274N24289 1942 60 NA NA NOT_NAMED 1942-10-04 18:00:00 ET 44.1000 -53.0000 45 hurdat_atl main 278 227 O_____________ hurdat_atl AL081942 44.1000 -53.0000 EX 45 -4 16 22
1942274N24289 1942 60 NA NA NOT_NAMED 1942-10-04 21:00:00 ET 44.6498 -52.5662 main 227 173 P_____________ AL081942 44.6498 -52.5662 EX 47 -4 12 27
1942274N24289 1942 60 NA NA NOT_NAMED 1942-10-05 00:00:00 ET 45.2000 -52.2000 50 hurdat_atl main 173 113 O_____________ hurdat_atl AL081942 45.2000 -52.2000 EX 50 -4 16 17
1942274N24289 1942 60 NA NA NOT_NAMED 1942-10-05 03:00:00 ET 46.2048 -51.8850 main 107 80 P_____________ AL081942 46.2048 -51.8850 EX 52 -4 21 11
1942274N24289 1942 60 NA NA NOT_NAMED 1942-10-05 06:00:00 ET 47.3000 -51.6000 55 hurdat_atl main 78 75 O_____________ hurdat_atl AL081942 47.3000 -51.6000 EX 55 -4 20 12
1942274N24289 1942 60 NA NA NOT_NAMED 1942-10-05 09:00:00 ET 48.1499 -51.2909 main 110 110 P_____________ AL081942 48.1499 -51.2909 EX 57 -4 17 13
1942274N24289 1942 60 NA NA NOT_NAMED 1942-10-05 12:00:00 ET 49.0000 -51.0000 60 hurdat_atl main 156 156 O_____________ hurdat_atl AL081942 49.0000 -51.0000 EX 60 -4 19 11
1942274N24289 1942 60 NA NA NOT_NAMED 1942-10-05 15:00:00 ET 50.0001 -50.7425 main 215 215 P_____________ AL081942 50.0001 -50.7425 EX 60 -4 21 9
1942274N24289 1942 60 NA NA NOT_NAMED 1942-10-05 18:00:00 ET 51.1000 -50.5000 60 hurdat_atl main 291 O_____________ hurdat_atl AL081942 51.1000 -50.5000 EX 60 -4 22 8

About IBTrACS Database

This database is a web-friendly format of International Best Track Archive for Climate Stewardship (IBTrACS), a global best track data archive curated by NOAA dating back to 1842.

Updated: 2021-10-21